Time,TemperatureF,DewpointF,PressureIn,WindDirection,WindDirectionDegrees,WindSpeedMPH,WindSpeedGustMPH,Humidity,HourlyPrecipIn,Conditions,Clouds,dailyrainin,SoftwareType,DateUTC
2013-03-27 00:03:00,24.7,20.0,30.32,SSW,202,0.0,3.0,82,0.00,,,0.00,Wunderground v.1.15,2013-03-27 05:03:00,
2013-03-27 00:08:00,24.4,19.4,30.31,SSW,202,0.0,3.0,81,0.00,,,0.00,Wunderground v.1.15,2013-03-27 05:08:00,
2013-03-27 00:13:00,23.4,18.4,30.32,SSW,202,0.0,0.0,81,0.00,,,0.00,Wunderground v.1.15,2013-03-27 05:13:00,
2013-03-27 00:18:00,22.7,18.0,30.32,SSW,202,0.0,0.0,82,0.00,,,0.00,Wunderground v.1.15,2013-03-27 05:18:00,
2013-03-27 00:23:00,22.4,18.0,30.32,SSW,202,0.0,0.0,83,0.00,,,0.00,Wunderground v.1.15,2013-03-27 05:23:00,
2013-03-27 00:29:00,22.1,17.7,30.32,SSW,202,0.0,0.0,83,0.00,,,0.00,Wunderground v.1.15,2013-03-27 05:29:00,
2013-03-27 00:36:00,22.2,18.1,30.32,SSW,202,0.0,0.0,84,0.00,,,0.00,Wunderground v.1.15,2013-03-27 05:36:00,
2013-03-27 00:41:00,22.3,18.5,30.32,SSW,202,0.0,0.0,85,0.00,,,0.00,Wunderground v.1.15,2013-03-27 05:41:00,
2013-03-27 00:46:00,22.6,18.8,30.31,SSW,202,0.0,0.0,85,0.00,,,0.00,Wunderground v.1.15,2013-03-27 05:46:00,
2013-03-27 00:51:00,22.8,19.0,30.31,SSW,202,0.0,0.0,85,0.00,,,0.00,Wunderground v.1.15,2013-03-27 05:51:00,
2013-03-27 00:57:00,22.9,19.1,30.32,SSW,202,0.0,0.0,85,0.00,,,0.00,Wunderground v.1.15,2013-03-27 05:57:00,
2013-03-27 01:02:00,22.5,18.7,30.31,SSW,202,0.0,0.0,85,0.00,,,0.00,Wunderground v.1.15,2013-03-27 06:02:00,
2013-03-27 01:07:00,22.3,18.5,30.31,SSW,202,0.0,0.0,85,0.00,,,0.00,Wunderground v.1.15,2013-03-27 06:07:00,
2013-03-27 01:12:00,22.4,18.8,30.31,SSW,202,0.0,0.0,86,0.00,,,0.00,Wunderground v.1.15,2013-03-27 06:12:00,
2013-03-27 01:18:00,22.8,19.2,30.31,SSW,202,0.0,0.0,86,0.00,,,0.00,Wunderground v.1.15,2013-03-27 06:18:00,
2013-03-27 01:23:00,22.9,19.3,30.31,SSW,202,0.0,0.0,86,0.00,,,0.00,Wunderground v.1.15,2013-03-27 06:23:00,
2013-03-27 01:29:00,22.8,19.2,30.31,SSW,202,0.0,0.0,86,0.00,,,0.00,Wunderground v.1.15,2013-03-27 06:29:00,
2013-03-27 01:34:00,22.7,19.1,30.31,SSW,202,0.0,0.0,86,0.00,,,0.00,Wunderground v.1.15,2013-03-27 06:34:00,
2013-03-27 01:39:00,22.8,19.2,30.31,SSW,202,0.0,0.0,86,0.00,,,0.00,Wunderground v.1.15,2013-03-27 06:39:00,
2013-03-27 01:46:00,23.2,19.6,30.31,SSW,202,0.0,0.0,86,0.00,,,0.00,Wunderground v.1.15,2013-03-27 06:46:00,
2013-03-27 01:51:00,23.1,19.5,30.30,SSW,202,0.0,0.0,86,0.00,,,0.00,Wunderground v.1.15,2013-03-27 06:51:00,
2013-03-27 01:56:00,22.9,19.3,30.30,SSW,202,0.0,0.0,86,0.00,,,0.00,Wunderground v.1.15,2013-03-27 06:56:00,
2013-03-27 02:01:00,23.1,19.5,30.31,SSW,202,0.0,0.0,86,0.00,,,0.00,Wunderground v.1.15,2013-03-27 07:01:00,
2013-03-27 02:07:00,22.8,19.2,30.30,SSW,202,0.0,0.0,86,0.00,,,0.00,Wunderground v.1.15,2013-03-27 07:07:00,
2013-03-27 02:12:00,22.8,19.2,30.30,SSW,202,0.0,0.0,86,0.00,,,0.00,Wunderground v.1.15,2013-03-27 07:12:00,
2013-03-27 02:17:00,23.1,19.5,30.30,SSW,202,0.0,0.0,86,0.00,,,0.00,Wunderground v.1.15,2013-03-27 07:17:00,
2013-03-27 02:22:00,23.3,19.7,30.30,SSW,202,0.0,0.0,86,0.00,,,0.00,Wunderground v.1.15,2013-03-27 07:22:00,
2013-03-27 02:27:00,23.4,19.8,30.30,SSW,202,0.0,0.0,86,0.00,,,0.00,Wunderground v.1.15,2013-03-27 07:27:00,
2013-03-27 02:32:00,23.4,19.8,30.30,SSW,202,0.0,0.0,86,0.00,,,0.00,Wunderground v.1.15,2013-03-27 07:32:00,
2013-03-27 02:37:00,23.4,19.8,30.30,SSW,202,0.0,0.0,86,0.00,,,0.00,Wunderground v.1.15,2013-03-27 07:37:00,
2013-03-27 02:42:00,23.4,19.8,30.30,SSW,202,0.0,0.0,86,0.00,,,0.00,Wunderground v.1.15,2013-03-27 07:42:00,
2013-03-27 02:47:00,23.5,19.9,30.30,SSW,202,0.0,0.0,86,0.00,,,0.00,Wunderground v.1.15,2013-03-27 07:47:00,
2013-03-27 02:52:00,23.8,20.5,30.30,SSW,202,0.0,0.0,87,0.00,,,0.00,Wunderground v.1.15,2013-03-27 07:52:00,
2013-03-27 02:57:00,23.8,20.5,30.30,SSW,202,0.0,0.0,87,0.00,,,0.00,Wunderground v.1.15,2013-03-27 07:57:00,
2013-03-27 03:02:00,23.8,20.2,30.31,SSW,202,0.0,0.0,86,0.00,,,0.00,Wunderground v.1.15,2013-03-27 08:02:00,
2013-03-27 03:07:00,23.7,20.1,30.31,SSW,202,0.0,0.0,86,0.00,,,0.00,Wunderground v.1.15,2013-03-27 08:07:00,
2013-03-27 03:12:00,23.5,19.9,30.31,SSW,202,0.0,0.0,86,0.00,,,0.00,Wunderground v.1.15,2013-03-27 08:12:00,
2013-03-27 03:17:00,23.4,19.8,30.31,SSW,202,0.0,0.0,86,0.00,,,0.00,Wunderground v.1.15,2013-03-27 08:17:00,
2013-03-27 03:22:00,22.9,19.3,30.31,SSW,202,0.0,0.0,86,0.00,,,0.00,Wunderground v.1.15,2013-03-27 08:22:00,
2013-03-27 03:28:00,22.4,18.8,30.31,SSW,202,0.0,0.0,86,0.00,,,0.00,Wunderground v.1.15,2013-03-27 08:28:00,
2013-03-27 03:33:00,22.1,18.6,30.31,SSW,202,0.0,0.0,86,0.00,,,0.00,Wunderground v.1.15,2013-03-27 08:33:00,
2013-03-27 03:38:00,21.8,18.3,30.31,SSW,202,0.0,0.0,86,0.00,,,0.00,Wunderground v.1.15,2013-03-27 08:38:00,
2013-03-27 03:43:00,21.5,18.0,30.31,SSW,202,0.0,0.0,86,0.00,,,0.00,Wunderground v.1.15,2013-03-27 08:43:00,
2013-03-27 03:48:00,20.7,17.2,30.31,SSW,202,0.0,0.0,86,0.00,,,0.00,Wunderground v.1.15,2013-03-27 08:48:00,
2013-03-27 03:53:00,20.3,16.8,30.31,SSW,202,0.0,0.0,86,0.00,,,0.00,Wunderground v.1.15,2013-03-27 08:53:00,
2013-03-27 03:58:00,20.0,16.5,30.31,SSW,202,0.0,0.0,86,0.00,,,0.00,Wunderground v.1.15,2013-03-27 08:58:00,
2013-03-27 04:03:00,19.7,16.5,30.31,SSW,202,0.0,0.0,87,0.00,,,0.00,Wunderground v.1.15,2013-03-27 09:03:00,
2013-03-27 04:08:00,19.4,16.2,30.31,SSW,202,0.0,0.0,87,0.00,,,0.00,Wunderground v.1.15,2013-03-27 09:08:00,
2013-03-27 04:13:00,19.4,16.2,30.31,SSW,202,0.0,0.0,87,0.00,,,0.00,Wunderground v.1.15,2013-03-27 09:13:00,
2013-03-27 04:18:00,19.5,16.3,30.31,SSW,202,0.0,0.0,87,0.00,,,0.00,Wunderground v.1.15,2013-03-27 09:18:00,
2013-03-27 04:23:00,18.9,15.7,30.31,SSW,202,0.0,0.0,87,0.00,,,0.00,Wunderground v.1.15,2013-03-27 09:23:00,
2013-03-27 04:28:00,18.8,15.6,30.31,SSW,202,0.0,0.0,87,0.00,,,0.00,Wunderground v.1.15,2013-03-27 09:28:00,
2013-03-27 04:33:00,18.9,15.7,30.31,SSW,202,0.0,0.0,87,0.00,,,0.00,Wunderground v.1.15,2013-03-27 09:33:00,
2013-03-27 04:38:00,19.1,16.1,30.31,SSW,202,0.0,0.0,88,0.00,,,0.00,Wunderground v.1.15,2013-03-27 09:38:00,
2013-03-27 04:43:00,19.2,16.2,30.30,SSW,202,0.0,0.0,88,0.00,,,0.00,Wunderground v.1.15,2013-03-27 09:43:00,
2013-03-27 04:48:00,19.3,16.3,30.30,SSW,202,0.0,0.0,88,0.00,,,0.00,Wunderground v.1.15,2013-03-27 09:48:00,
2013-03-27 04:53:00,19.1,16.1,30.30,SSW,202,0.0,0.0,88,0.00,,,0.00,Wunderground v.1.15,2013-03-27 09:53:00,
2013-03-27 04:58:00,19.0,16.0,30.30,SSW,202,0.0,0.0,88,0.00,,,0.00,Wunderground v.1.15,2013-03-27 09:58:00,
2013-03-27 05:03:00,19.0,16.0,30.30,SSW,202,0.0,0.0,88,0.00,,,0.00,Wunderground v.1.15,2013-03-27 10:03:00,
2013-03-27 05:08:00,19.0,16.0,30.30,SSW,202,0.0,0.0,88,0.00,,,0.00,Wunderground v.1.15,2013-03-27 10:08:00,
2013-03-27 05:13:00,18.9,15.9,30.30,SSW,202,0.0,0.0,88,0.00,,,0.00,Wunderground v.1.15,2013-03-27 10:13:00,
2013-03-27 05:18:00,18.8,15.8,30.30,SSW,202,0.0,0.0,88,0.00,,,0.00,Wunderground v.1.15,2013-03-27 10:18:00,
2013-03-27 05:23:00,18.7,15.7,30.29,SSW,202,0.0,0.0,88,0.00,,,0.00,Wunderground v.1.15,2013-03-27 10:23:00,
2013-03-27 05:28:00,18.7,15.7,30.30,SSW,202,0.0,0.0,88,0.00,,,0.00,Wunderground v.1.15,2013-03-27 10:28:00,
2013-03-27 05:33:00,18.6,15.6,30.30,SSW,202,0.0,0.0,88,0.00,,,0.00,Wunderground v.1.15,2013-03-27 10:33:00,
2013-03-27 05:38:00,18.7,15.7,30.30,SSW,202,0.0,0.0,88,0.00,,,0.00,Wunderground v.1.15,2013-03-27 10:38:00,
2013-03-27 05:44:00,18.7,15.7,30.30,SSW,202,0.0,0.0,88,0.00,,,0.00,Wunderground v.1.15,2013-03-27 10:44:00,
2013-03-27 05:49:00,19.0,16.3,30.30,SSW,202,2.0,2.0,89,0.00,,,0.00,Wunderground v.1.15,2013-03-27 10:49:00,
2013-03-27 05:54:00,19.5,16.8,30.30,SSW,202,2.0,3.0,89,0.00,,,0.00,Wunderground v.1.15,2013-03-27 10:54:00,
2013-03-27 05:59:00,19.4,16.4,30.30,SSW,202,1.0,3.0,88,0.00,,,0.00,Wunderground v.1.15,2013-03-27 10:59:00,
2013-03-27 06:04:00,19.2,16.2,30.30,SSW,202,1.0,2.0,88,0.00,,,0.00,Wunderground v.1.15,2013-03-27 11:04:00,
2013-03-27 06:09:00,18.8,15.8,30.30,SSW,202,1.0,2.0,88,0.00,,,0.00,Wunderground v.1.15,2013-03-27 11:09:00,
2013-03-27 06:14:00,18.6,15.6,30.30,SSW,202,0.0,1.0,88,0.00,,,0.00,Wunderground v.1.15,2013-03-27 11:14:00,
2013-03-27 06:19:00,18.7,15.7,30.30,SSW,202,0.0,1.0,88,0.00,,,0.00,Wunderground v.1.15,2013-03-27 11:19:00,
2013-03-27 06:24:00,19.0,16.3,30.30,SSW,202,0.0,0.0,89,0.00,,,0.00,Wunderground v.1.15,2013-03-27 11:24:00,
2013-03-27 06:29:00,18.9,16.2,30.30,SSW,202,0.0,0.0,89,0.00,,,0.00,Wunderground v.1.15,2013-03-27 11:29:00,
2013-03-27 06:34:00,18.7,15.7,30.30,SSW,202,0.0,0.0,88,0.00,,,0.00,Wunderground v.1.15,2013-03-27 11:34:00,
2013-03-27 06:39:00,18.5,15.5,30.30,SSW,202,0.0,0.0,88,0.00,,,0.00,Wunderground v.1.15,2013-03-27 11:39:00,
2013-03-27 06:44:00,18.4,15.4,30.30,SSW,202,0.0,0.0,88,0.00,,,0.00,Wunderground v.1.15,2013-03-27 11:44:00,
2013-03-27 06:49:00,18.1,15.1,30.30,SSW,202,0.0,0.0,88,0.00,,,0.00,Wunderground v.1.15,2013-03-27 11:49:00,
2013-03-27 06:54:00,17.9,14.9,30.30,SSW,202,0.0,0.0,88,0.00,,,0.00,Wunderground v.1.15,2013-03-27 11:54:00,
2013-03-27 06:59:00,17.7,14.8,30.30,SSW,202,0.0,0.0,88,0.00,,,0.00,Wunderground v.1.15,2013-03-27 11:59:00,
2013-03-27 07:04:00,17.4,14.5,30.30,SSW,202,0.0,0.0,88,0.00,,,0.00,Wunderground v.1.15,2013-03-27 12:04:00,
2013-03-27 07:09:00,18.0,15.0,30.30,SSW,202,0.0,0.0,88,0.00,,,0.00,Wunderground v.1.15,2013-03-27 12:09:00,
2013-03-27 07:14:00,18.2,15.2,30.30,SSW,202,0.0,0.0,88,0.00,,,0.00,Wunderground v.1.15,2013-03-27 12:14:00,
2013-03-27 07:19:00,18.4,15.7,30.30,SSW,202,0.0,0.0,89,0.00,,,0.00,Wunderground v.1.15,2013-03-27 12:19:00,
2013-03-27 07:24:00,18.8,16.1,30.30,SSW,202,0.0,0.0,89,0.00,,,0.00,Wunderground v.1.15,2013-03-27 12:24:00,
2013-03-27 07:29:00,19.4,16.7,30.30,SSW,202,2.0,2.0,89,0.00,,,0.00,Wunderground v.1.15,2013-03-27 12:29:00,
2013-03-27 07:34:00,20.3,17.6,30.30,SSW,202,3.0,3.0,89,0.00,,,0.00,Wunderground v.1.15,2013-03-27 12:34:00,
2013-03-27 07:39:00,21.2,18.5,30.30,SSW,202,3.0,5.0,89,0.00,,,0.00,Wunderground v.1.15,2013-03-27 12:39:00,
2013-03-27 07:44:00,21.9,19.2,30.31,SSW,202,3.0,4.0,89,0.00,,,0.00,Wunderground v.1.15,2013-03-27 12:44:00,
2013-03-27 07:49:00,22.3,19.6,30.31,SSW,202,2.0,4.0,89,0.00,,,0.00,Wunderground v.1.15,2013-03-27 12:49:00,
2013-03-27 07:54:00,22.7,19.9,30.31,SSW,202,3.0,4.0,89,0.00,,,0.00,Wunderground v.1.15,2013-03-27 12:54:00,
2013-03-27 08:00:00,23.1,20.3,30.31,SSW,202,2.0,2.0,89,0.00,,,0.00,Wunderground v.1.15,2013-03-27 13:00:00,
2013-03-27 08:05:00,23.8,21.0,30.31,SSW,202,1.0,4.0,89,0.00,,,0.00,Wunderground v.1.15,2013-03-27 13:05:00,
2013-03-27 08:10:00,24.4,21.4,30.31,SSW,202,2.0,3.0,88,0.00,,,0.00,Wunderground v.1.15,2013-03-27 13:10:00,
2013-03-27 08:15:00,24.9,21.8,30.31,SSW,202,2.0,4.0,88,0.00,,,0.00,Wunderground v.1.15,2013-03-27 13:15:00,
2013-03-27 08:21:00,25.7,22.6,30.31,SSW,202,3.0,5.0,88,0.00,,,0.00,Wunderground v.1.15,2013-03-27 13:21:00,
2013-03-27 08:27:00,26.3,23.2,30.31,SSW,202,5.0,5.0,88,0.00,,,0.00,Wunderground v.1.15,2013-03-27 13:27:00,
2013-03-27 08:32:00,26.8,23.4,30.31,SSW,202,5.0,5.0,87,0.00,,,0.00,Wunderground v.1.15,2013-03-27 13:32:00,
2013-03-27 08:37:00,27.2,23.6,30.31,SSW,202,5.0,7.0,86,0.00,,,0.00,Wunderground v.1.15,2013-03-27 13:37:00,
2013-03-27 08:42:00,27.7,23.8,30.32,SSW,202,3.0,5.0,85,0.00,,,0.00,Wunderground v.1.15,2013-03-27 13:42:00,
2013-03-27 08:47:00,28.2,24.3,30.32,SSW,202,4.0,6.0,85,0.00,,,0.00,Wunderground v.1.15,2013-03-27 13:47:00,
2013-03-27 08:52:00,28.4,23.9,30.32,SSW,202,5.0,5.0,83,0.00,,,0.00,Wunderground v.1.15,2013-03-27 13:52:00,
2013-03-27 08:57:00,28.7,23.9,30.32,SSW,202,5.0,7.0,82,0.00,,,0.00,Wunderground v.1.15,2013-03-27 13:57:00,
2013-03-27 09:02:00,29.0,24.2,30.32,SSW,202,6.0,7.0,82,0.00,,,0.00,Wunderground v.1.15,2013-03-27 14:02:00,
2013-03-27 09:07:00,29.2,24.1,30.32,SSW,202,5.0,7.0,81,0.00,,,0.00,Wunderground v.1.15,2013-03-27 14:07:00,
2013-03-27 09:12:00,29.4,24.0,30.32,SSW,202,2.0,8.0,80,0.00,,,0.00,Wunderground v.1.15,2013-03-27 14:12:00,
2013-03-27 09:17:00,29.8,24.4,30.32,SSW,202,3.0,8.0,80,0.00,,,0.00,Wunderground v.1.15,2013-03-27 14:17:00,
2013-03-27 09:22:00,30.2,24.8,30.32,SSW,202,7.0,7.0,80,0.00,,,0.00,Wunderground v.1.15,2013-03-27 14:22:00,
2013-03-27 09:27:00,30.7,25.0,30.32,SSW,202,5.0,8.0,79,0.00,,,0.00,Wunderground v.1.15,2013-03-27 14:27:00,
2013-03-27 09:32:00,31.0,25.2,30.32,SSW,202,7.0,7.0,79,0.00,,,0.00,Wunderground v.1.15,2013-03-27 14:32:00,
2013-03-27 09:37:00,31.1,24.7,30.32,SSW,202,4.0,8.0,77,0.00,,,0.00,Wunderground v.1.15,2013-03-27 14:37:00,
2013-03-27 09:42:00,31.3,24.6,30.32,SSW,202,6.0,9.0,76,0.00,,,0.00,Wunderground v.1.15,2013-03-27 14:42:00,
2013-03-27 09:48:00,31.7,24.7,30.32,SSW,198,5.0,9.0,75,0.00,,,0.00,Wunderground v.1.15,2013-03-27 14:48:00,
2013-03-27 09:53:00,31.9,24.9,30.32,South,190,8.0,9.0,75,0.00,,,0.00,Wunderground v.1.15,2013-03-27 14:53:00,
2013-03-27 09:58:00,32.6,25.6,30.32,South,186,7.0,10.0,75,0.00,,,0.00,Wunderground v.1.15,2013-03-27 14:58:00,
2013-03-27 10:03:00,32.8,25.4,30.32,South,183,8.0,9.0,74,0.00,,,0.00,Wunderground v.1.15,2013-03-27 15:03:00,
2013-03-27 10:08:00,33.1,25.4,30.32,South,181,6.0,9.0,73,0.00,,,0.00,Wunderground v.1.15,2013-03-27 15:08:00,
2013-03-27 10:13:00,33.0,25.0,30.32,South,177,8.0,10.0,72,0.00,,,0.00,Wunderground v.1.15,2013-03-27 15:13:00,
2013-03-27 10:18:00,33.2,25.1,30.32,South,171,7.0,10.0,72,0.00,,,0.00,Wunderground v.1.15,2013-03-27 15:18:00,
2013-03-27 10:23:00,33.3,24.9,30.32,SSE,163,6.0,11.0,71,0.00,,,0.00,Wunderground v.1.15,2013-03-27 15:23:00,
2013-03-27 10:28:00,33.8,25.0,30.32,SSE,161,10.0,11.0,70,0.00,,,0.00,Wunderground v.1.15,2013-03-27 15:28:00,
2013-03-27 10:33:00,34.0,25.6,30.32,SSE,161,7.0,10.0,71,0.00,,,0.00,Wunderground v.1.15,2013-03-27 15:33:00,
2013-03-27 10:38:00,34.2,25.1,30.32,SSE,161,7.0,11.0,69,0.00,,,0.00,Wunderground v.1.15,2013-03-27 15:38:00,
2013-03-27 10:43:00,34.4,24.9,30.32,SSE,161,7.0,12.0,68,0.00,,,0.00,Wunderground v.1.15,2013-03-27 15:43:00,
2013-03-27 10:48:00,34.4,25.3,30.32,SSE,161,7.0,12.0,69,0.00,,,0.00,Wunderground v.1.15,2013-03-27 15:48:00,
2013-03-27 10:53:00,34.6,25.1,30.32,SSE,155,5.0,11.0,68,0.00,,,0.00,Wunderground v.1.15,2013-03-27 15:53:00,
2013-03-27 10:58:00,35.0,25.5,30.32,SSE,155,8.0,11.0,68,0.00,,,0.00,Wunderground v.1.15,2013-03-27 15:58:00,
2013-03-27 11:03:00,35.4,25.9,30.32,SSE,155,8.0,9.0,68,0.00,,,0.00,Wunderground v.1.15,2013-03-27 16:03:00,
2013-03-27 11:08:00,35.0,25.5,30.32,SSE,157,7.0,12.0,68,0.00,,,0.00,Wunderground v.1.15,2013-03-27 16:08:00,
2013-03-27 11:13:00,35.3,25.8,30.32,SSE,159,10.0,10.0,68,0.00,,,0.00,Wunderground v.1.15,2013-03-27 16:13:00,
2013-03-27 11:18:00,35.7,25.8,30.32,SSE,153,7.0,11.0,67,0.00,,,0.00,Wunderground v.1.15,2013-03-27 16:18:00,
2013-03-27 11:23:00,35.8,25.9,30.32,SSE,153,5.0,8.0,67,0.00,,,0.00,Wunderground v.1.15,2013-03-27 16:23:00,
2013-03-27 11:28:00,35.8,25.9,30.32,SSE,152,8.0,12.0,67,0.00,,,0.00,Wunderground v.1.15,2013-03-27 16:28:00,
2013-03-27 11:33:00,35.9,24.9,30.32,SSE,155,6.0,9.0,64,0.00,,,0.00,Wunderground v.1.15,2013-03-27 16:33:00,
2013-03-27 11:38:00,36.7,26.4,30.32,SSE,161,7.0,10.0,66,0.00,,,0.00,Wunderground v.1.15,2013-03-27 16:38:00,
2013-03-27 11:43:00,36.8,25.8,30.32,SSE,161,10.0,10.0,64,0.00,,,0.00,Wunderground v.1.15,2013-03-27 16:43:00,
2013-03-27 11:48:00,36.5,25.5,30.32,SSE,161,9.0,11.0,64,0.00,,,0.00,Wunderground v.1.15,2013-03-27 16:48:00,
2013-03-27 11:53:00,36.2,25.2,30.32,SSE,159,6.0,11.0,64,0.00,,,0.00,Wunderground v.1.15,2013-03-27 16:53:00,
2013-03-27 11:58:00,36.5,26.2,30.32,SSE,159,8.0,11.0,66,0.00,,,0.00,Wunderground v.1.15,2013-03-27 16:58:00,
2013-03-27 12:04:00,36.5,25.5,30.32,SSE,157,7.0,10.0,64,0.00,,,0.00,Wunderground v.1.15,2013-03-27 17:04:00,
2013-03-27 12:09:00,36.9,25.9,30.32,SSE,157,6.0,10.0,64,0.00,,,0.00,Wunderground v.1.15,2013-03-27 17:09:00,
2013-03-27 12:14:00,37.1,26.0,30.32,SSE,159,5.0,9.0,64,0.00,,,0.00,Wunderground v.1.15,2013-03-27 17:14:00,
2013-03-27 12:19:00,37.5,25.7,30.32,SSE,159,8.0,11.0,62,0.00,,,0.00,Wunderground v.1.15,2013-03-27 17:19:00,
2013-03-27 12:24:00,37.4,25.9,30.31,SSE,159,7.0,9.0,63,0.00,,,0.00,Wunderground v.1.15,2013-03-27 17:24:00,
2013-03-27 12:29:00,37.5,26.0,30.31,SSE,159,7.0,12.0,63,0.00,,,0.00,Wunderground v.1.15,2013-03-27 17:29:00,
2013-03-27 12:34:00,37.7,26.2,30.31,SSE,153,9.0,12.0,63,0.00,,,0.00,Wunderground v.1.15,2013-03-27 17:34:00,
2013-03-27 12:39:00,37.7,26.6,30.31,SSE,165,13.0,13.0,64,0.00,,,0.00,Wunderground v.1.15,2013-03-27 17:39:00,
2013-03-27 12:44:00,37.7,26.2,30.31,South,169,6.0,11.0,63,0.00,,,0.00,Wunderground v.1.15,2013-03-27 17:44:00,
2013-03-27 12:49:00,38.0,26.5,30.31,SSE,168,10.0,11.0,63,0.00,,,0.00,Wunderground v.1.15,2013-03-27 17:49:00,
2013-03-27 12:54:00,38.3,27.2,30.31,South,169,9.0,9.0,64,0.00,,,0.00,Wunderground v.1.15,2013-03-27 17:54:00,
2013-03-27 12:59:00,38.4,26.5,30.31,South,173,10.0,11.0,62,0.00,,,0.00,Wunderground v.1.15,2013-03-27 17:59:00,
2013-03-27 13:04:00,38.1,26.6,30.31,SSE,166,9.0,12.0,63,0.00,,,0.00,Wunderground v.1.15,2013-03-27 18:04:00,
2013-03-27 13:09:00,38.7,27.2,30.31,SSE,167,4.0,12.0,63,0.00,,,0.00,Wunderground v.1.15,2013-03-27 18:09:00,
2013-03-27 13:14:00,39.1,27.6,30.30,SSE,161,10.0,13.0,63,0.00,,,0.00,Wunderground v.1.15,2013-03-27 18:14:00,
2013-03-27 13:19:00,38.8,26.9,30.30,South,170,7.0,13.0,62,0.00,,,0.00,Wunderground v.1.15,2013-03-27 18:19:00,
2013-03-27 13:24:00,39.3,28.1,30.30,SSE,163,10.0,12.0,64,0.00,,,0.00,Wunderground v.1.15,2013-03-27 18:24:00,
2013-03-27 13:29:00,38.8,27.7,30.30,SSE,163,6.0,12.0,64,0.00,,,0.00,Wunderground v.1.15,2013-03-27 18:29:00,
2013-03-27 13:34:00,38.9,27.4,30.30,SE,141,6.0,13.0,63,0.00,,,0.00,Wunderground v.1.15,2013-03-27 18:34:00,
2013-03-27 13:39:00,39.3,28.1,30.30,SSE,151,9.0,13.0,64,0.00,,,0.00,Wunderground v.1.15,2013-03-27 18:39:00,
2013-03-27 13:44:00,39.7,28.5,30.30,SSE,151,8.0,13.0,64,0.00,,,0.00,Wunderground v.1.15,2013-03-27 18:44:00,
2013-03-27 13:49:00,39.6,27.2,30.30,SSE,150,5.0,13.0,61,0.00,,,0.00,Wunderground v.1.15,2013-03-27 18:49:00,
2013-03-27 13:54:00,39.5,28.3,30.30,SSE,162,11.0,13.0,64,0.00,,,0.00,Wunderground v.1.15,2013-03-27 18:54:00,
2013-03-27 13:59:00,39.5,27.5,30.30,SSE,162,7.0,13.0,62,0.00,,,0.00,Wunderground v.1.15,2013-03-27 18:59:00,
2013-03-27 14:04:00,39.4,27.1,30.30,SSE,160,3.0,8.0,61,0.00,,,0.00,Wunderground v.1.15,2013-03-27 19:04:00,
2013-03-27 14:09:00,40.0,28.0,30.29,SSE,153,7.0,11.0,62,0.00,,,0.00,Wunderground v.1.15,2013-03-27 19:09:00,
2013-03-27 14:14:00,39.5,27.2,30.29,SSE,153,8.0,10.0,61,0.00,,,0.00,Wunderground v.1.15,2013-03-27 19:14:00,
2013-03-27 14:19:00,39.7,26.9,30.29,South,176,7.0,14.0,60,0.00,,,0.00,Wunderground v.1.15,2013-03-27 19:19:00,
2013-03-27 14:24:00,39.7,26.9,30.29,South,175,5.0,9.0,60,0.00,,,0.00,Wunderground v.1.15,2013-03-27 19:24:00,
2013-03-27 14:29:00,39.8,27.8,30.29,South,174,9.0,11.0,62,0.00,,,0.00,Wunderground v.1.15,2013-03-27 19:29:00,
2013-03-27 14:34:00,39.8,27.8,30.28,South,169,3.0,11.0,62,0.00,,,0.00,Wunderground v.1.15,2013-03-27 19:34:00,
2013-03-27 14:39:00,39.9,27.5,30.28,South,170,5.0,11.0,61,0.00,,,0.00,Wunderground v.1.15,2013-03-27 19:39:00,
2013-03-27 14:44:00,40.1,27.3,30.28,South,169,4.0,8.0,60,0.00,,,0.00,Wunderground v.1.15,2013-03-27 19:44:00,
2013-03-27 14:49:00,40.4,28.0,30.28,SE,142,4.0,13.0,61,0.00,,,0.00,Wunderground v.1.15,2013-03-27 19:49:00,
2013-03-27 14:54:00,40.4,28.0,30.28,SE,141,6.0,10.0,61,0.00,,,0.00,Wunderground v.1.15,2013-03-27 19:54:00,
2013-03-27 14:59:00,40.4,28.4,30.28,SE,142,7.0,10.0,62,0.00,,,0.00,Wunderground v.1.15,2013-03-27 19:59:00,
2013-03-27 15:04:00,40.1,28.1,30.27,SSE,152,8.0,12.0,62,0.00,,,0.00,Wunderground v.1.15,2013-03-27 20:04:00,
2013-03-27 15:09:00,40.4,28.8,30.27,SSE,152,8.0,12.0,63,0.00,,,0.00,Wunderground v.1.15,2013-03-27 20:09:00,
2013-03-27 15:14:00,41.1,29.5,30.27,SSE,148,5.0,12.0,63,0.00,,,0.00,Wunderground v.1.15,2013-03-27 20:14:00,
2013-03-27 15:19:00,40.7,27.9,30.27,SE,144,9.0,12.0,60,0.00,,,0.00,Wunderground v.1.15,2013-03-27 20:19:00,
2013-03-27 15:24:00,40.1,26.9,30.27,SE,135,5.0,9.0,59,0.00,,,0.00,Wunderground v.1.15,2013-03-27 20:24:00,
2013-03-27 15:29:00,40.7,27.9,30.27,SE,132,9.0,11.0,60,0.00,,,0.00,Wunderground v.1.15,2013-03-27 20:29:00,
2013-03-27 15:34:00,40.7,27.1,30.27,SE,128,6.0,13.0,58,0.00,,,0.00,Wunderground v.1.15,2013-03-27 20:34:00,
2013-03-27 15:39:00,40.5,26.9,30.27,SE,138,5.0,13.0,58,0.00,,,0.00,Wunderground v.1.15,2013-03-27 20:39:00,
2013-03-27 15:44:00,41.1,28.7,30.27,SE,138,8.0,10.0,61,0.00,,,0.00,Wunderground v.1.15,2013-03-27 20:44:00,
2013-03-27 15:49:00,40.8,28.8,30.26,SE,137,10.0,11.0,62,0.00,,,0.00,Wunderground v.1.15,2013-03-27 20:49:00,
2013-03-27 15:54:00,40.7,28.7,30.26,SE,138,8.0,10.0,62,0.00,,,0.00,Wunderground v.1.15,2013-03-27 20:54:00,
2013-03-27 16:00:00,41.1,28.7,30.26,SE,130,5.0,7.0,61,0.00,,,0.00,Wunderground v.1.15,2013-03-27 21:00:00,
2013-03-27 16:05:00,41.4,28.9,30.26,SE,126,6.0,10.0,61,0.00,,,0.00,Wunderground v.1.15,2013-03-27 21:05:00,
2013-03-27 16:10:00,41.4,28.5,30.26,SE,126,7.0,7.0,60,0.00,,,0.00,Wunderground v.1.15,2013-03-27 21:10:00,
2013-03-27 16:15:00,41.5,29.4,30.26,SE,126,6.0,11.0,62,0.00,,,0.00,Wunderground v.1.15,2013-03-27 21:15:00,
2013-03-27 16:20:00,41.1,28.7,30.26,ESE,119,10.0,10.0,61,0.00,,,0.00,Wunderground v.1.15,2013-03-27 21:20:00,
2013-03-27 16:25:00,41.3,29.6,30.26,SE,130,5.0,10.0,63,0.00,,,0.00,Wunderground v.1.15,2013-03-27 21:25:00,
2013-03-27 16:30:00,41.4,29.3,30.26,SE,125,10.0,10.0,62,0.00,,,0.00,Wunderground v.1.15,2013-03-27 21:30:00,
2013-03-27 16:35:00,41.5,29.0,30.26,ESE,121,5.0,10.0,61,0.00,,,0.00,Wunderground v.1.15,2013-03-27 21:35:00,
2013-03-27 16:40:00,41.2,28.8,30.25,ESE,110,8.0,9.0,61,0.00,,,0.00,Wunderground v.1.15,2013-03-27 21:40:00,
2013-03-27 16:46:00,40.9,27.7,30.25,ESE,107,5.0,12.0,59,0.00,,,0.00,Wunderground v.1.15,2013-03-27 21:46:00,
2013-03-27 16:51:00,41.0,27.8,30.25,ESE,108,8.0,8.0,59,0.00,,,0.00,Wunderground v.1.15,2013-03-27 21:51:00,
2013-03-27 16:57:00,41.1,28.7,30.25,ESE,119,8.0,14.0,61,0.00,,,0.00,Wunderground v.1.15,2013-03-27 21:57:00,
2013-03-27 17:02:00,41.2,28.8,30.25,ESE,119,9.0,10.0,61,0.00,,,0.00,Wunderground v.1.15,2013-03-27 22:02:00,
2013-03-27 17:07:00,41.0,28.6,30.25,SE,130,9.0,12.0,61,0.00,,,0.00,Wunderground v.1.15,2013-03-27 22:07:00,
2013-03-27 17:12:00,40.9,28.9,30.25,SE,124,7.0,12.0,62,0.00,,,0.00,Wunderground v.1.15,2013-03-27 22:12:00,
2013-03-27 17:17:00,40.7,28.7,30.25,ESE,114,8.0,12.0,62,0.00,,,0.00,Wunderground v.1.15,2013-03-27 22:17:00,
2013-03-27 17:22:00,40.8,28.8,30.25,ESE,110,9.0,13.0,62,0.00,,,0.00,Wunderground v.1.15,2013-03-27 22:22:00,
2013-03-27 17:27:00,40.9,28.9,30.25,ESE,110,7.0,13.0,62,0.00,,,0.00,Wunderground v.1.15,2013-03-27 22:27:00,
2013-03-27 17:32:00,40.6,28.6,30.26,ESE,112,5.0,12.0,62,0.00,,,0.00,Wunderground v.1.15,2013-03-27 22:32:00,
2013-03-27 17:37:00,40.4,28.4,30.26,SE,124,6.0,13.0,62,0.00,,,0.00,Wunderground v.1.15,2013-03-27 22:37:00,
2013-03-27 17:43:00,40.5,28.9,30.26,SE,124,9.0,12.0,63,0.00,,,0.00,Wunderground v.1.15,2013-03-27 22:43:00,
2013-03-27 17:48:00,40.3,28.3,30.25,ESE,123,10.0,12.0,62,0.00,,,0.00,Wunderground v.1.15,2013-03-27 22:48:00,
2013-03-27 17:53:00,39.8,27.8,30.25,SE,130,9.0,12.0,62,0.00,,,0.00,Wunderground v.1.15,2013-03-27 22:53:00,
2013-03-27 17:58:00,39.9,28.3,30.25,SE,130,6.0,12.0,63,0.00,,,0.00,Wunderground v.1.15,2013-03-27 22:58:00,
2013-03-27 18:03:00,39.7,28.1,30.25,SE,130,7.0,9.0,63,0.00,,,0.00,Wunderground v.1.15,2013-03-27 23:03:00,
2013-03-27 18:08:00,39.7,27.7,30.25,SE,130,8.0,11.0,62,0.00,,,0.00,Wunderground v.1.15,2013-03-27 23:08:00,
2013-03-27 18:13:00,39.3,27.7,30.25,SE,128,7.0,8.0,63,0.00,,,0.00,Wunderground v.1.15,2013-03-27 23:13:00,
2013-03-27 18:18:00,39.1,27.6,30.25,SE,128,9.0,13.0,63,0.00,,,0.00,Wunderground v.1.15,2013-03-27 23:18:00,
2013-03-27 18:23:00,38.9,27.8,30.25,SE,128,6.0,9.0,64,0.00,,,0.00,Wunderground v.1.15,2013-03-27 23:23:00,
2013-03-27 18:28:00,38.8,27.7,30.25,SE,128,9.0,9.0,64,0.00,,,0.00,Wunderground v.1.15,2013-03-27 23:28:00,
2013-03-27 18:33:00,38.6,27.5,30.26,SE,128,5.0,9.0,64,0.00,,,0.00,Wunderground v.1.15,2013-03-27 23:33:00,
2013-03-27 18:38:00,38.3,27.6,30.26,SE,128,7.0,9.0,65,0.00,,,0.00,Wunderground v.1.15,2013-03-27 23:38:00,
2013-03-27 18:43:00,38.0,27.6,30.26,SE,128,6.0,8.0,66,0.00,,,0.00,Wunderground v.1.15,2013-03-27 23:43:00,
2013-03-27 18:48:00,37.8,27.5,30.26,SE,128,8.0,9.0,66,0.00,,,0.00,Wunderground v.1.15,2013-03-27 23:48:00,
2013-03-27 18:53:00,37.5,27.2,30.26,SE,128,5.0,9.0,66,0.00,,,0.00,Wunderground v.1.15,2013-03-27 23:53:00,
2013-03-27 18:58:00,37.2,27.2,30.26,SE,128,5.0,9.0,67,0.00,,,0.00,Wunderground v.1.15,2013-03-27 23:58:00,
2013-03-27 19:03:00,36.9,27.3,30.26,SE,128,5.0,8.0,68,0.00,,,0.00,Wunderground v.1.15,2013-03-28 00:03:00,
2013-03-27 19:08:00,36.5,27.3,30.27,SE,128,3.0,8.0,69,0.00,,,0.00,Wunderground v.1.15,2013-03-28 00:08:00,
2013-03-27 19:13:00,36.0,27.2,30.27,SE,128,3.0,5.0,70,0.00,,,0.00,Wunderground v.1.15,2013-03-28 00:13:00,
2013-03-27 19:18:00,35.6,27.1,30.27,SE,128,3.0,6.0,71,0.00,,,0.00,Wunderground v.1.15,2013-03-28 00:18:00,
2013-03-27 19:23:00,34.9,26.4,30.27,SE,128,2.0,3.0,71,0.00,,,0.00,Wunderground v.1.15,2013-03-28 00:23:00,
2013-03-27 19:28:00,34.4,26.3,30.27,SE,128,2.0,3.0,72,0.00,,,0.00,Wunderground v.1.15,2013-03-28 00:28:00,
2013-03-27 19:33:00,33.8,26.1,30.27,SE,128,2.0,3.0,73,0.00,,,0.00,Wunderground v.1.15,2013-03-28 00:33:00,
2013-03-27 19:38:00,33.2,25.5,30.27,SE,128,2.0,3.0,73,0.00,,,0.00,Wunderground v.1.15,2013-03-28 00:38:00,
2013-03-27 19:43:00,32.5,25.1,30.27,SE,128,2.0,3.0,74,0.00,,,0.00,Wunderground v.1.15,2013-03-28 00:43:00,
2013-03-27 19:48:00,32.0,25.0,30.27,SE,128,0.0,3.0,75,0.00,,,0.00,Wunderground v.1.15,2013-03-28 00:48:00,
2013-03-27 19:53:00,31.4,24.7,30.27,SE,128,2.0,3.0,76,0.00,,,0.00,Wunderground v.1.15,2013-03-28 00:53:00,
2013-03-27 19:58:00,31.0,24.6,30.27,SE,128,0.0,3.0,77,0.00,,,0.00,Wunderground v.1.15,2013-03-28 00:58:00,
2013-03-27 20:03:00,30.4,24.4,30.27,SE,128,0.0,1.0,78,0.00,,,0.00,Wunderground v.1.15,2013-03-28 01:03:00,
2013-03-27 20:08:00,30.1,24.1,30.28,SE,128,0.0,1.0,78,0.00,,,0.00,Wunderground v.1.15,2013-03-28 01:08:00,
2013-03-27 20:13:00,29.6,23.9,30.28,SE,128,0.0,0.0,79,0.00,,,0.00,Wunderground v.1.15,2013-03-28 01:13:00,
2013-03-27 20:19:00,29.2,23.8,30.28,SE,128,0.0,0.0,80,0.00,,,0.00,Wunderground v.1.15,2013-03-28 01:19:00,
2013-03-27 20:24:00,28.8,23.7,30.28,SE,128,0.0,0.0,81,0.00,,,0.00,Wunderground v.1.15,2013-03-28 01:24:00,
2013-03-27 20:29:00,28.7,23.9,30.28,SE,128,0.0,0.0,82,0.00,,,0.00,Wunderground v.1.15,2013-03-28 01:29:00,
2013-03-27 20:34:00,28.5,24.0,30.28,SE,128,0.0,0.0,83,0.00,,,0.00,Wunderground v.1.15,2013-03-28 01:34:00,
2013-03-27 20:39:00,28.4,23.9,30.28,SE,128,0.0,0.0,83,0.00,,,0.00,Wunderground v.1.15,2013-03-28 01:39:00,
2013-03-27 20:44:00,28.4,24.2,30.28,SE,128,0.0,0.0,84,0.00,,,0.00,Wunderground v.1.15,2013-03-28 01:44:00,
2013-03-27 20:49:00,28.5,24.6,30.28,SE,128,0.0,0.0,85,0.00,,,0.00,Wunderground v.1.15,2013-03-28 01:49:00,
2013-03-27 20:54:00,28.4,24.5,30.29,SE,128,0.0,0.0,85,0.00,,,0.00,Wunderground v.1.15,2013-03-28 01:54:00,
2013-03-27 20:59:00,28.2,24.3,30.29,SE,128,0.0,0.0,85,0.00,,,0.00,Wunderground v.1.15,2013-03-28 01:59:00,
2013-03-27 21:04:00,27.9,24.0,30.29,SE,128,0.0,0.0,85,0.00,,,0.00,Wunderground v.1.15,2013-03-28 02:04:00,
2013-03-27 21:09:00,27.7,24.1,30.29,SE,128,2.0,3.0,86,0.00,,,0.00,Wunderground v.1.15,2013-03-28 02:09:00,
2013-03-27 21:14:00,27.4,23.8,30.29,SE,128,2.0,3.0,86,0.00,,,0.00,Wunderground v.1.15,2013-03-28 02:14:00,
2013-03-27 21:19:00,27.5,23.9,30.29,SE,128,3.0,3.0,86,0.00,,,0.00,Wunderground v.1.15,2013-03-28 02:19:00,
2013-03-27 21:24:00,27.8,24.2,30.30,SE,128,0.0,3.0,86,0.00,,,0.00,Wunderground v.1.15,2013-03-28 02:24:00,
2013-03-27 21:29:00,27.7,24.3,30.30,SE,128,0.0,3.0,87,0.00,,,0.00,Wunderground v.1.15,2013-03-28 02:29:00,
2013-03-27 21:34:00,27.6,24.2,30.30,SE,128,0.0,1.0,87,0.00,,,0.00,Wunderground v.1.15,2013-03-28 02:34:00,
2013-03-27 21:39:00,27.5,24.1,30.30,SE,128,0.0,1.0,87,0.00,,,0.00,Wunderground v.1.15,2013-03-28 02:39:00,
2013-03-27 21:44:00,27.4,24.0,30.30,SE,128,0.0,0.0,87,0.00,,,0.00,Wunderground v.1.15,2013-03-28 02:44:00,
2013-03-27 21:49:00,27.5,24.1,30.30,SE,128,2.0,3.0,87,0.00,,,0.00,Wunderground v.1.15,2013-03-28 02:49:00,
2013-03-27 21:54:00,28.5,25.4,30.30,SE,128,2.0,3.0,88,0.00,,,0.00,Wunderground v.1.15,2013-03-28 02:54:00,
2013-03-27 21:59:00,28.9,25.5,30.31,SE,128,1.0,3.0,87,0.00,,,0.00,Wunderground v.1.15,2013-03-28 02:59:00,
2013-03-27 22:04:00,28.7,25.3,30.31,SE,128,2.0,2.0,87,0.00,,,0.00,Wunderground v.1.15,2013-03-28 03:04:00,
2013-03-27 22:09:00,28.5,25.1,30.31,SE,128,2.0,3.0,87,0.00,,,0.00,Wunderground v.1.15,2013-03-28 03:09:00,
2013-03-27 22:14:00,28.7,25.3,30.31,SE,128,0.0,2.0,87,0.00,,,0.00,Wunderground v.1.15,2013-03-28 03:14:00,
2013-03-27 22:19:00,28.9,25.5,30.31,SE,128,0.0,2.0,87,0.00,,,0.00,Wunderground v.1.15,2013-03-28 03:19:00,
2013-03-27 22:24:00,29.3,25.9,30.31,SE,128,2.0,3.0,87,0.00,,,0.00,Wunderground v.1.15,2013-03-28 03:24:00,
2013-03-27 22:29:00,29.4,26.0,30.31,SE,128,2.0,3.0,87,0.00,,,0.00,Wunderground v.1.15,2013-03-28 03:29:00,
2013-03-27 22:34:00,29.6,26.2,30.31,SE,128,4.0,5.0,87,0.00,,,0.00,Wunderground v.1.15,2013-03-28 03:34:00,
2013-03-27 22:39:00,29.8,26.4,30.31,SE,128,2.0,5.0,87,0.00,,,0.00,Wunderground v.1.15,2013-03-28 03:39:00,
2013-03-27 22:44:00,29.8,26.4,30.31,SE,128,3.0,4.0,87,0.00,,,0.00,Wunderground v.1.15,2013-03-28 03:44:00,
2013-03-27 22:49:00,29.9,26.2,30.30,SE,128,3.0,5.0,86,0.00,,,0.00,Wunderground v.1.15,2013-03-28 03:49:00,
2013-03-27 22:54:00,29.9,26.2,30.31,SE,128,3.0,5.0,86,0.00,,,0.00,Wunderground v.1.15,2013-03-28 03:54:00,
2013-03-27 22:59:00,30.0,26.6,30.31,SE,128,5.0,5.0,87,0.00,,,0.00,Wunderground v.1.15,2013-03-28 03:59:00,
2013-03-27 23:00:00,30.0,26.6,30.31,SE,128,3.0,3.0,87,0.00,,,0.00,Wunderground v.1.15,2013-03-28 04:00:00,
2013-03-27 23:02:00,30.1,26.7,30.31,SE,128,5.0,5.0,87,0.00,,,0.00,Wunderground v.1.15,2013-03-28 04:02:00,
2013-03-27 23:03:00,30.2,26.8,30.30,SE,128,5.0,5.0,87,0.00,,,0.00,Wunderground v.1.15,2013-03-28 04:03:00,
2013-03-27 23:08:00,30.3,26.6,30.30,SE,128,4.0,6.0,86,0.00,,,0.00,Wunderground v.1.15,2013-03-28 04:08:00,
2013-03-27 23:13:00,30.4,26.7,30.30,SE,128,4.0,5.0,86,0.00,,,0.00,Wunderground v.1.15,2013-03-28 04:13:00,
2013-03-27 23:18:00,30.6,26.9,30.30,SE,128,3.0,5.0,86,0.00,,,0.00,Wunderground v.1.15,2013-03-28 04:18:00,
2013-03-27 23:23:00,30.7,27.0,30.30,SE,128,4.0,6.0,86,0.00,,,0.00,Wunderground v.1.15,2013-03-28 04:23:00,
2013-03-27 23:28:00,30.9,27.2,30.30,SE,128,6.0,7.0,86,0.00,,,0.00,Wunderground v.1.15,2013-03-28 04:28:00,
2013-03-27 23:33:00,31.0,27.3,30.30,SE,128,5.0,5.0,86,0.00,,,0.00,Wunderground v.1.15,2013-03-28 04:33:00,
2013-03-27 23:38:00,31.0,27.0,30.30,SE,128,5.0,8.0,85,0.00,,,0.00,Wunderground v.1.15,2013-03-28 04:38:00,
2013-03-27 23:44:00,31.2,27.2,30.30,SE,128,5.0,8.0,85,0.00,,,0.00,Wunderground v.1.15,2013-03-28 04:44:00,
2013-03-27 23:49:00,31.2,27.2,30.30,SE,128,5.0,8.0,85,0.00,,,0.00,Wunderground v.1.15,2013-03-28 04:49:00,
2013-03-27 23:54:00,31.0,27.0,30.30,SE,128,5.0,5.0,85,0.00,,,0.00,Wunderground v.1.15,2013-03-28 04:54:00,
2013-03-27 23:59:00,31.1,27.1,30.30,SE,128,3.0,6.0,85,0.00,,,0.00,Wunderground v.1.15,2013-03-28 04:59:00,